sensor_id;sensor_type;location;lat;lon;timestamp;P1;durP1;ratioP1;P2;durP2;ratioP2
60241;SDS011;46103;52.076;113.488;2022-12-29T00:03:19;87.38;;;42.40;;
60241;SDS011;46103;52.076;113.488;2022-12-29T00:06:24;93.47;;;39.78;;
60241;SDS011;46103;52.076;113.488;2022-12-29T00:09:46;98.88;;;42.65;;
60241;SDS011;46103;52.076;113.488;2022-12-29T00:12:50;109.55;;;43.72;;
60241;SDS011;46103;52.076;113.488;2022-12-29T00:16:12;92.78;;;34.85;;
60241;SDS011;46103;52.076;113.488;2022-12-29T00:19:15;116.95;;;43.10;;
60241;SDS011;46103;52.076;113.488;2022-12-29T00:22:38;106.57;;;38.13;;
60241;SDS011;46103;52.076;113.488;2022-12-29T00:26:02;117.57;;;43.78;;
60241;SDS011;46103;52.076;113.488;2022-12-29T00:29:25;137.40;;;56.55;;
60241;SDS011;46103;52.076;113.488;2022-12-29T00:36:56;87.75;;;41.35;;
60241;SDS011;46103;52.076;113.488;2022-12-29T00:40:02;91.03;;;37.60;;
60241;SDS011;46103;52.076;113.488;2022-12-29T00:43:24;103.93;;;47.53;;
60241;SDS011;46103;52.076;113.488;2022-12-29T00:46:46;85.85;;;42.08;;
60241;SDS011;46103;52.076;113.488;2022-12-29T00:50:09;90.53;;;38.70;;
60241;SDS011;46103;52.076;113.488;2022-12-29T00:53:32;116.95;;;46.05;;
60241;SDS011;46103;52.076;113.488;2022-12-29T00:56:36;96.78;;;36.92;;
60241;SDS011;46103;52.076;113.488;2022-12-29T00:59:41;149.25;;;59.65;;
60241;SDS011;46103;52.076;113.488;2022-12-29T01:02:45;163.07;;;61.90;;
60241;SDS011;46103;52.076;113.488;2022-12-29T01:05:51;163.70;;;56.50;;
60241;SDS011;46103;52.076;113.488;2022-12-29T01:08:54;107.15;;;44.85;;
60241;SDS011;46103;52.076;113.488;2022-12-29T01:12:17;128.35;;;46.42;;
60241;SDS011;46103;52.076;113.488;2022-12-29T01:15:48;129.63;;;52.40;;
60241;SDS011;46103;52.076;113.488;2022-12-29T01:18:56;125.95;;;51.63;;
60241;SDS011;46103;52.076;113.488;2022-12-29T01:22:01;130.88;;;54.53;;
60241;SDS011;46103;52.076;113.488;2022-12-29T01:25:24;150.75;;;59.30;;
60241;SDS011;46103;52.076;113.488;2022-12-29T01:28:29;139.00;;;62.70;;
60241;SDS011;46103;52.076;113.488;2022-12-29T01:31:52;207.75;;;73.47;;
60241;SDS011;46103;52.076;113.488;2022-12-29T01:35:13;169.57;;;78.15;;
60241;SDS011;46103;52.076;113.488;2022-12-29T01:38:19;251.00;;;98.90;;
60241;SDS011;46103;52.076;113.488;2022-12-29T01:41:23;237.32;;;96.90;;
60241;SDS011;46103;52.076;113.488;2022-12-29T01:44:47;295.38;;;106.28;;
60241;SDS011;46103;52.076;113.488;2022-12-29T01:48:01;234.25;;;96.45;;
60241;SDS011;46103;52.076;113.488;2022-12-29T01:55:25;254.00;;;98.28;;
60241;SDS011;46103;52.076;113.488;2022-12-29T01:58:54;240.27;;;101.07;;
60241;SDS011;46103;52.076;113.488;2022-12-29T02:02:04;237.13;;;97.97;;
60241;SDS011;46103;52.076;113.488;2022-12-29T02:05:36;282.27;;;113.25;;
60241;SDS011;46103;52.076;113.488;2022-12-29T02:08:56;304.48;;;107.45;;
60241;SDS011;46103;52.076;113.488;2022-12-29T02:12:00;290.67;;;107.85;;
60241;SDS011;46103;52.076;113.488;2022-12-29T02:15:06;314.85;;;120.35;;
60241;SDS011;46103;52.076;113.488;2022-12-29T02:18:15;314.88;;;122.95;;
60241;SDS011;46103;52.076;113.488;2022-12-29T02:46:03;322.38;;;129.32;;
60241;SDS011;46103;52.076;113.488;2022-12-29T02:52:40;406.88;;;145.18;;
60241;SDS011;46103;52.076;113.488;2022-12-29T02:56:25;422.40;;;162.60;;
60241;SDS011;46103;52.076;113.488;2022-12-29T02:59:29;391.10;;;155.48;;
60241;SDS011;46103;52.076;113.488;2022-12-29T03:09:19;399.67;;;157.25;;
60241;SDS011;46103;52.076;113.488;2022-12-29T03:22:22;468.58;;;183.60;;
60241;SDS011;46103;52.076;113.488;2022-12-29T03:25:52;470.85;;;184.93;;
60241;SDS011;46103;52.076;113.488;2022-12-29T03:29:00;498.58;;;193.18;;
60241;SDS011;46103;52.076;113.488;2022-12-29T03:32:23;555.65;;;198.73;;
60241;SDS011;46103;52.076;113.488;2022-12-29T03:35:32;532.85;;;209.55;;
60241;SDS011;46103;52.076;113.488;2022-12-29T03:38:48;517.80;;;197.60;;
60241;SDS011;46103;52.076;113.488;2022-12-29T03:42:00;493.73;;;188.13;;
60241;SDS011;46103;52.076;113.488;2022-12-29T03:45:09;523.22;;;192.32;;
60241;SDS011;46103;52.076;113.488;2022-12-29T03:48:13;505.70;;;181.30;;
60241;SDS011;46103;52.076;113.488;2022-12-29T03:51:19;452.23;;;171.60;;
60241;SDS011;46103;52.076;113.488;2022-12-29T03:54:23;463.63;;;176.95;;
60241;SDS011;46103;52.076;113.488;2022-12-29T03:57:28;457.38;;;166.68;;
60241;SDS011;46103;52.076;113.488;2022-12-29T04:00:38;474.70;;;171.32;;
60241;SDS011;46103;52.076;113.488;2022-12-29T04:03:42;467.35;;;161.18;;
60241;SDS011;46103;52.076;113.488;2022-12-29T04:06:46;399.23;;;140.32;;
60241;SDS011;46103;52.076;113.488;2022-12-29T04:09:49;431.05;;;149.13;;
60241;SDS011;46103;52.076;113.488;2022-12-29T04:12:57;342.35;;;121.93;;
60241;SDS011;46103;52.076;113.488;2022-12-29T04:16:04;438.77;;;144.30;;
60241;SDS011;46103;52.076;113.488;2022-12-29T04:19:10;407.05;;;142.50;;
60241;SDS011;46103;52.076;113.488;2022-12-29T04:22:13;455.55;;;153.05;;
60241;SDS011;46103;52.076;113.488;2022-12-29T04:25:19;407.35;;;143.45;;
60241;SDS011;46103;52.076;113.488;2022-12-29T04:28:23;404.67;;;143.73;;
60241;SDS011;46103;52.076;113.488;2022-12-29T04:32:05;398.05;;;134.27;;
60241;SDS011;46103;52.076;113.488;2022-12-29T04:35:28;431.48;;;146.13;;
60241;SDS011;46103;52.076;113.488;2022-12-29T04:38:50;397.80;;;144.48;;
60241;SDS011;46103;52.076;113.488;2022-12-29T04:41:54;412.63;;;132.00;;
60241;SDS011;46103;52.076;113.488;2022-12-29T04:45:17;354.90;;;131.18;;
60241;SDS011;46103;52.076;113.488;2022-12-29T04:48:50;358.20;;;122.65;;
60241;SDS011;46103;52.076;113.488;2022-12-29T04:52:11;328.85;;;113.82;;
60241;SDS011;46103;52.076;113.488;2022-12-29T04:55:17;374.98;;;116.20;;
60241;SDS011;46103;52.076;113.488;2022-12-29T05:01:42;365.42;;;122.47;;
60241;SDS011;46103;52.076;113.488;2022-12-29T05:04:46;348.88;;;113.80;;
60241;SDS011;46103;52.076;113.488;2022-12-29T05:07:50;347.02;;;112.25;;
60241;SDS011;46103;52.076;113.488;2022-12-29T05:10:53;321.52;;;106.45;;
60241;SDS011;46103;52.076;113.488;2022-12-29T05:13:57;316.52;;;100.95;;
60241;SDS011;46103;52.076;113.488;2022-12-29T05:17:20;332.70;;;111.32;;
60241;SDS011;46103;52.076;113.488;2022-12-29T05:20:23;327.35;;;107.90;;
60241;SDS011;46103;52.076;113.488;2022-12-29T05:23:27;326.92;;;108.43;;
60241;SDS011;46103;52.076;113.488;2022-12-29T05:26:35;302.30;;;103.38;;
60241;SDS011;46103;52.076;113.488;2022-12-29T05:29:44;319.33;;;108.20;;
60241;SDS011;46103;52.076;113.488;2022-12-29T05:32:48;299.92;;;103.28;;
60241;SDS011;46103;52.076;113.488;2022-12-29T05:35:52;297.20;;;102.28;;
60241;SDS011;46103;52.076;113.488;2022-12-29T05:38:57;282.25;;;96.05;;
60241;SDS011;46103;52.076;113.488;2022-12-29T05:42:00;274.88;;;93.35;;
60241;SDS011;46103;52.076;113.488;2022-12-29T05:45:27;315.67;;;94.28;;
60241;SDS011;46103;52.076;113.488;2022-12-29T05:48:57;286.15;;;94.15;;
60241;SDS011;46103;52.076;113.488;2022-12-29T05:52:37;282.38;;;90.95;;
60241;SDS011;46103;52.076;113.488;2022-12-29T05:55:40;303.38;;;102.30;;
60241;SDS011;46103;52.076;113.488;2022-12-29T05:58:50;307.98;;;98.72;;
60241;SDS011;46103;52.076;113.488;2022-12-29T06:01:56;310.00;;;101.40;;
60241;SDS011;46103;52.076;113.488;2022-12-29T06:04:59;310.77;;;95.68;;
60241;SDS011;46103;52.076;113.488;2022-12-29T06:08:04;298.77;;;93.00;;
60241;SDS011;46103;52.076;113.488;2022-12-29T06:11:08;298.50;;;97.13;;
60241;SDS011;46103;52.076;113.488;2022-12-29T06:14:15;172.65;;;58.58;;
60241;SDS011;46103;52.076;113.488;2022-12-29T06:17:19;284.95;;;92.47;;
60241;SDS011;46103;52.076;113.488;2022-12-29T06:20:24;308.25;;;103.95;;
60241;SDS011;46103;52.076;113.488;2022-12-29T06:23:28;294.98;;;100.93;;
60241;SDS011;46103;52.076;113.488;2022-12-29T06:26:32;307.13;;;99.60;;
60241;SDS011;46103;52.076;113.488;2022-12-29T06:29:36;304.55;;;97.78;;
60241;SDS011;46103;52.076;113.488;2022-12-29T06:32:42;289.33;;;93.38;;
60241;SDS011;46103;52.076;113.488;2022-12-29T06:35:48;276.35;;;93.32;;
60241;SDS011;46103;52.076;113.488;2022-12-29T06:39:10;249.63;;;80.72;;
60241;SDS011;46103;52.076;113.488;2022-12-29T06:42:49;259.20;;;79.35;;
60241;SDS011;46103;52.076;113.488;2022-12-29T06:46:21;272.92;;;88.47;;
60241;SDS011;46103;52.076;113.488;2022-12-29T06:49:25;302.55;;;96.13;;
60241;SDS011;46103;52.076;113.488;2022-12-29T06:52:29;313.85;;;102.40;;
60241;SDS011;46103;52.076;113.488;2022-12-29T06:55:32;336.10;;;109.07;;
60241;SDS011;46103;52.076;113.488;2022-12-29T06:58:54;328.77;;;111.38;;
60241;SDS011;46103;52.076;113.488;2022-12-29T07:01:58;299.95;;;99.53;;
60241;SDS011;46103;52.076;113.488;2022-12-29T07:05:01;316.08;;;99.25;;
60241;SDS011;46103;52.076;113.488;2022-12-29T07:08:04;288.60;;;88.95;;
60241;SDS011;46103;52.076;113.488;2022-12-29T07:11:08;269.63;;;91.30;;
60241;SDS011;46103;52.076;113.488;2022-12-29T07:14:12;246.13;;;82.88;;
60241;SDS011;46103;52.076;113.488;2022-12-29T07:17:16;285.38;;;91.97;;
60241;SDS011;46103;52.076;113.488;2022-12-29T07:20:20;307.88;;;98.88;;
60241;SDS011;46103;52.076;113.488;2022-12-29T07:23:28;331.27;;;110.65;;
60241;SDS011;46103;52.076;113.488;2022-12-29T07:26:32;316.08;;;111.13;;
60241;SDS011;46103;52.076;113.488;2022-12-29T07:30:14;311.55;;;104.15;;
60241;SDS011;46103;52.076;113.488;2022-12-29T07:33:18;330.95;;;110.15;;
60241;SDS011;46103;52.076;113.488;2022-12-29T07:36:21;325.55;;;107.72;;
60241;SDS011;46103;52.076;113.488;2022-12-29T07:39:44;327.00;;;105.68;;
60241;SDS011;46103;52.076;113.488;2022-12-29T07:42:48;308.30;;;99.63;;
60241;SDS011;46103;52.076;113.488;2022-12-29T07:46:18;349.75;;;119.28;;
60241;SDS011;46103;52.076;113.488;2022-12-29T07:49:41;341.00;;;116.13;;
60241;SDS011;46103;52.076;113.488;2022-12-29T07:52:45;327.13;;;108.40;;
60241;SDS011;46103;52.076;113.488;2022-12-29T07:55:50;324.45;;;107.95;;
60241;SDS011;46103;52.076;113.488;2022-12-29T07:59:13;339.30;;;112.20;;
60241;SDS011;46103;52.076;113.488;2022-12-29T08:02:17;384.70;;;125.85;;
60241;SDS011;46103;52.076;113.488;2022-12-29T08:05:21;348.13;;;117.53;;
60241;SDS011;46103;52.076;113.488;2022-12-29T08:08:25;380.17;;;122.85;;
60241;SDS011;46103;52.076;113.488;2022-12-29T08:11:29;413.20;;;136.25;;
60241;SDS011;46103;52.076;113.488;2022-12-29T08:14:33;393.10;;;132.50;;
60241;SDS011;46103;52.076;113.488;2022-12-29T08:17:37;387.45;;;127.95;;
60241;SDS011;46103;52.076;113.488;2022-12-29T08:20:41;401.15;;;128.45;;
60241;SDS011;46103;52.076;113.488;2022-12-29T08:23:46;384.90;;;124.95;;
60241;SDS011;46103;52.076;113.488;2022-12-29T08:26:51;352.80;;;120.15;;
60241;SDS011;46103;52.076;113.488;2022-12-29T08:29:55;347.92;;;111.10;;
60241;SDS011;46103;52.076;113.488;2022-12-29T08:32:59;345.60;;;112.70;;
60241;SDS011;46103;52.076;113.488;2022-12-29T08:36:06;324.98;;;109.22;;
60241;SDS011;46103;52.076;113.488;2022-12-29T08:39:32;339.17;;;112.38;;
60241;SDS011;46103;52.076;113.488;2022-12-29T08:43:16;348.17;;;104.00;;
60241;SDS011;46103;52.076;113.488;2022-12-29T08:46:39;333.85;;;106.18;;
60241;SDS011;46103;52.076;113.488;2022-12-29T08:49:44;302.52;;;105.13;;
60241;SDS011;46103;52.076;113.488;2022-12-29T08:52:48;290.83;;;97.30;;
60241;SDS011;46103;52.076;113.488;2022-12-29T08:56:09;331.02;;;110.47;;
60241;SDS011;46103;52.076;113.488;2022-12-29T08:59:20;284.52;;;99.68;;
60241;SDS011;46103;52.076;113.488;2022-12-29T09:02:24;348.67;;;120.85;;
60241;SDS011;46103;52.076;113.488;2022-12-29T09:05:50;310.73;;;105.82;;
60241;SDS011;46103;52.076;113.488;2022-12-29T09:08:55;356.80;;;114.18;;
60241;SDS011;46103;52.076;113.488;2022-12-29T09:12:17;309.38;;;102.78;;
60241;SDS011;46103;52.076;113.488;2022-12-29T09:15:21;287.38;;;97.43;;
60241;SDS011;46103;52.076;113.488;2022-12-29T09:18:25;251.10;;;81.70;;
60241;SDS011;46103;52.076;113.488;2022-12-29T09:21:28;205.57;;;61.20;;
60241;SDS011;46103;52.076;113.488;2022-12-29T09:24:31;201.70;;;63.50;;
60241;SDS011;46103;52.076;113.488;2022-12-29T09:27:36;200.77;;;64.20;;
60241;SDS011;46103;52.076;113.488;2022-12-29T09:30:58;202.38;;;65.75;;
60241;SDS011;46103;52.076;113.488;2022-12-29T09:34:03;210.00;;;70.70;;
60241;SDS011;46103;52.076;113.488;2022-12-29T09:37:06;239.52;;;76.65;;
60241;SDS011;46103;52.076;113.488;2022-12-29T09:40:28;233.57;;;72.47;;
60241;SDS011;46103;52.076;113.488;2022-12-29T09:47:25;207.85;;;69.88;;
60241;SDS011;46103;52.076;113.488;2022-12-29T09:50:36;199.82;;;62.15;;
60241;SDS011;46103;52.076;113.488;2022-12-29T09:53:43;178.73;;;59.13;;
60241;SDS011;46103;52.076;113.488;2022-12-29T09:57:23;138.82;;;43.70;;
60241;SDS011;46103;52.076;113.488;2022-12-29T10:01:05;161.82;;;54.38;;
60241;SDS011;46103;52.076;113.488;2022-12-29T10:04:10;209.20;;;70.38;;
60241;SDS011;46103;52.076;113.488;2022-12-29T10:07:24;259.65;;;86.55;;
60241;SDS011;46103;52.076;113.488;2022-12-29T10:11:13;188.02;;;60.80;;
60241;SDS011;46103;52.076;113.488;2022-12-29T10:21:37;139.82;;;50.30;;
60241;SDS011;46103;52.076;113.488;2022-12-29T10:24:44;144.07;;;48.83;;
60241;SDS011;46103;52.076;113.488;2022-12-29T10:27:53;121.07;;;44.65;;
60241;SDS011;46103;52.076;113.488;2022-12-29T10:30:59;146.65;;;46.47;;
60241;SDS011;46103;52.076;113.488;2022-12-29T10:34:15;128.88;;;44.67;;
60241;SDS011;46103;52.076;113.488;2022-12-29T10:37:30;174.50;;;50.97;;
60241;SDS011;46103;52.076;113.488;2022-12-29T10:44:24;133.02;;;44.47;;
60241;SDS011;46103;52.076;113.488;2022-12-29T10:47:34;126.75;;;47.03;;
60241;SDS011;46103;52.076;113.488;2022-12-29T10:50:41;131.63;;;42.15;;
60241;SDS011;46103;52.076;113.488;2022-12-29T10:53:47;124.03;;;44.47;;
60241;SDS011;46103;52.076;113.488;2022-12-29T10:57:18;145.98;;;45.85;;
60241;SDS011;46103;52.076;113.488;2022-12-29T11:00:29;129.63;;;44.13;;
60241;SDS011;46103;52.076;113.488;2022-12-29T11:03:39;136.32;;;47.00;;
60241;SDS011;46103;52.076;113.488;2022-12-29T11:07:04;147.25;;;49.65;;
60241;SDS011;46103;52.076;113.488;2022-12-29T11:13:56;189.25;;;64.00;;
60241;SDS011;46103;52.076;113.488;2022-12-29T11:17:04;178.15;;;58.08;;
60241;SDS011;46103;52.076;113.488;2022-12-29T11:20:36;168.27;;;57.80;;
60241;SDS011;46103;52.076;113.488;2022-12-29T11:23:41;165.95;;;54.55;;
60241;SDS011;46103;52.076;113.488;2022-12-29T11:26:45;154.63;;;52.40;;
60241;SDS011;46103;52.076;113.488;2022-12-29T11:29:50;166.88;;;56.33;;
60241;SDS011;46103;52.076;113.488;2022-12-29T11:32:55;221.35;;;72.72;;
60241;SDS011;46103;52.076;113.488;2022-12-29T11:36:04;150.50;;;52.03;;
60241;SDS011;46103;52.076;113.488;2022-12-29T11:39:34;165.15;;;58.70;;
60241;SDS011;46103;52.076;113.488;2022-12-29T11:42:47;254.88;;;90.28;;
60241;SDS011;46103;52.076;113.488;2022-12-29T11:46:01;261.88;;;91.78;;
60241;SDS011;46103;52.076;113.488;2022-12-29T11:49:23;289.98;;;95.53;;
60241;SDS011;46103;52.076;113.488;2022-12-29T11:52:36;302.63;;;95.70;;
60241;SDS011;46103;52.076;113.488;2022-12-29T11:55:52;201.13;;;64.75;;
60241;SDS011;46103;52.076;113.488;2022-12-29T12:06:01;189.43;;;58.35;;
60241;SDS011;46103;52.076;113.488;2022-12-29T12:09:31;231.45;;;81.88;;
60241;SDS011;46103;52.076;113.488;2022-12-29T12:12:44;186.82;;;58.55;;
60241;SDS011;46103;52.076;113.488;2022-12-29T12:15:58;268.02;;;85.93;;
60241;SDS011;46103;52.076;113.488;2022-12-29T12:22:40;250.50;;;83.00;;
60241;SDS011;46103;52.076;113.488;2022-12-29T12:29:34;313.73;;;105.78;;
60241;SDS011;46103;52.076;113.488;2022-12-29T12:33:24;311.73;;;110.07;;
60241;SDS011;46103;52.076;113.488;2022-12-29T12:36:49;394.77;;;147.98;;
60241;SDS011;46103;52.076;113.488;2022-12-29T12:51:34;295.60;;;105.22;;
60241;SDS011;46103;52.076;113.488;2022-12-29T12:58:01;363.50;;;128.20;;
60241;SDS011;46103;52.076;113.488;2022-12-29T13:05:09;361.35;;;132.95;;
60241;SDS011;46103;52.076;113.488;2022-12-29T13:32:27;261.50;;;94.75;;
60241;SDS011;46103;52.076;113.488;2022-12-29T13:39:12;215.00;;;68.03;;
60241;SDS011;46103;52.076;113.488;2022-12-29T13:42:22;173.48;;;62.53;;
60241;SDS011;46103;52.076;113.488;2022-12-29T13:45:26;194.73;;;67.43;;
60241;SDS011;46103;52.076;113.488;2022-12-29T13:48:37;176.05;;;61.83;;
60241;SDS011;46103;52.076;113.488;2022-12-29T13:52:03;177.15;;;68.32;;
60241;SDS011;46103;52.076;113.488;2022-12-29T13:58:31;217.67;;;73.17;;
60241;SDS011;46103;52.076;113.488;2022-12-29T14:04:56;229.38;;;78.90;;
60241;SDS011;46103;52.076;113.488;2022-12-29T14:08:02;273.80;;;79.88;;
60241;SDS011;46103;52.076;113.488;2022-12-29T14:11:09;222.18;;;80.30;;
60241;SDS011;46103;52.076;113.488;2022-12-29T14:17:32;221.15;;;81.97;;
60241;SDS011;46103;52.076;113.488;2022-12-29T14:20:36;221.77;;;77.05;;
60241;SDS011;46103;52.076;113.488;2022-12-29T14:27:43;237.43;;;75.25;;
60241;SDS011;46103;52.076;113.488;2022-12-29T14:30:51;82.15;;;32.35;;
60241;SDS011;46103;52.076;113.488;2022-12-29T14:37:22;57.13;;;29.15;;
60241;SDS011;46103;52.076;113.488;2022-12-29T14:40:29;157.77;;;53.00;;
60241;SDS011;46103;52.076;113.488;2022-12-29T14:43:32;148.40;;;48.95;;
60241;SDS011;46103;52.076;113.488;2022-12-29T14:50:16;136.52;;;49.60;;
60241;SDS011;46103;52.076;113.488;2022-12-29T14:57:05;145.48;;;53.72;;
60241;SDS011;46103;52.076;113.488;2022-12-29T15:00:19;107.00;;;41.85;;
60241;SDS011;46103;52.076;113.488;2022-12-29T15:03:38;151.10;;;47.63;;
60241;SDS011;46103;52.076;113.488;2022-12-29T15:06:52;115.07;;;42.83;;
60241;SDS011;46103;52.076;113.488;2022-12-29T15:10:05;152.05;;;48.28;;
60241;SDS011;46103;52.076;113.488;2022-12-29T15:13:15;148.13;;;49.10;;
60241;SDS011;46103;52.076;113.488;2022-12-29T15:16:23;163.68;;;43.05;;
60241;SDS011;46103;52.076;113.488;2022-12-29T15:19:29;180.57;;;56.55;;
60241;SDS011;46103;52.076;113.488;2022-12-29T15:22:33;155.90;;;54.75;;
60241;SDS011;46103;52.076;113.488;2022-12-29T15:25:44;156.10;;;55.80;;
60241;SDS011;46103;52.076;113.488;2022-12-29T15:28:52;125.03;;;44.03;;
60241;SDS011;46103;52.076;113.488;2022-12-29T15:32:02;136.13;;;48.78;;
60241;SDS011;46103;52.076;113.488;2022-12-29T15:35:24;154.65;;;48.40;;
60241;SDS011;46103;52.076;113.488;2022-12-29T15:38:49;127.82;;;46.20;;
60241;SDS011;46103;52.076;113.488;2022-12-29T15:41:55;114.97;;;44.30;;
60241;SDS011;46103;52.076;113.488;2022-12-29T15:45:05;107.18;;;37.15;;
60241;SDS011;46103;52.076;113.488;2022-12-29T15:48:17;111.97;;;41.22;;
60241;SDS011;46103;52.076;113.488;2022-12-29T15:51:27;110.43;;;41.90;;
60241;SDS011;46103;52.076;113.488;2022-12-29T15:54:53;97.45;;;34.85;;
60241;SDS011;46103;52.076;113.488;2022-12-29T15:58:20;134.48;;;41.08;;
60241;SDS011;46103;52.076;113.488;2022-12-29T16:01:35;107.60;;;37.50;;
60241;SDS011;46103;52.076;113.488;2022-12-29T16:04:39;122.63;;;42.40;;
60241;SDS011;46103;52.076;113.488;2022-12-29T16:15:01;65.18;;;25.88;;
60241;SDS011;46103;52.076;113.488;2022-12-29T16:18:44;105.95;;;38.42;;
60241;SDS011;46103;52.076;113.488;2022-12-29T16:21:40;104.63;;;40.22;;
60241;SDS011;46103;52.076;113.488;2022-12-29T16:24:44;126.10;;;46.40;;
60241;SDS011;46103;52.076;113.488;2022-12-29T16:27:48;129.05;;;42.88;;
60241;SDS011;46103;52.076;113.488;2022-12-29T16:30:58;177.85;;;62.08;;
60241;SDS011;46103;52.076;113.488;2022-12-29T16:34:19;172.18;;;61.28;;
60241;SDS011;46103;52.076;113.488;2022-12-29T16:37:33;174.93;;;62.15;;
60241;SDS011;46103;52.076;113.488;2022-12-29T16:40:54;209.27;;;72.25;;
60241;SDS011;46103;52.076;113.488;2022-12-29T16:44:18;164.93;;;58.30;;
60241;SDS011;46103;52.076;113.488;2022-12-29T16:47:29;160.13;;;58.42;;
60241;SDS011;46103;52.076;113.488;2022-12-29T16:50:34;129.88;;;47.10;;
60241;SDS011;46103;52.076;113.488;2022-12-29T16:53:40;185.38;;;56.22;;
60241;SDS011;46103;52.076;113.488;2022-12-29T16:56:50;100.20;;;42.50;;
60241;SDS011;46103;52.076;113.488;2022-12-29T16:59:56;155.65;;;49.38;;
60241;SDS011;46103;52.076;113.488;2022-12-29T17:03:02;154.55;;;53.42;;
60241;SDS011;46103;52.076;113.488;2022-12-29T17:06:08;161.95;;;56.60;;
60241;SDS011;46103;52.076;113.488;2022-12-29T17:09:26;154.23;;;54.40;;
60241;SDS011;46103;52.076;113.488;2022-12-29T17:12:30;116.53;;;39.28;;
60241;SDS011;46103;52.076;113.488;2022-12-29T17:15:37;152.30;;;48.08;;
60241;SDS011;46103;52.076;113.488;2022-12-29T17:18:41;176.40;;;58.05;;
60241;SDS011;46103;52.076;113.488;2022-12-29T17:21:45;155.07;;;53.83;;
60241;SDS011;46103;52.076;113.488;2022-12-29T17:24:49;153.00;;;56.13;;
60241;SDS011;46103;52.076;113.488;2022-12-29T17:27:53;165.65;;;55.58;;
60241;SDS011;46103;52.076;113.488;2022-12-29T17:31:01;136.70;;;47.08;;
60241;SDS011;46103;52.076;113.488;2022-12-29T17:34:07;162.23;;;50.15;;
60241;SDS011;46103;52.076;113.488;2022-12-29T17:37:32;141.27;;;48.13;;
60241;SDS011;46103;52.076;113.488;2022-12-29T17:40:37;123.47;;;49.10;;
60241;SDS011;46103;52.076;113.488;2022-12-29T17:43:41;132.35;;;44.70;;
60241;SDS011;46103;52.076;113.488;2022-12-29T17:46:46;82.57;;;35.65;;
60241;SDS011;46103;52.076;113.488;2022-12-29T17:49:50;144.25;;;53.25;;
60241;SDS011;46103;52.076;113.488;2022-12-29T17:52:58;129.27;;;48.05;;
60241;SDS011;46103;52.076;113.488;2022-12-29T17:56:04;149.10;;;51.47;;
60241;SDS011;46103;52.076;113.488;2022-12-29T17:59:10;148.57;;;53.17;;
60241;SDS011;46103;52.076;113.488;2022-12-29T18:05:30;140.05;;;48.60;;
60241;SDS011;46103;52.076;113.488;2022-12-29T18:08:35;181.60;;;52.00;;
60241;SDS011;46103;52.076;113.488;2022-12-29T18:11:58;131.90;;;43.97;;
60241;SDS011;46103;52.076;113.488;2022-12-29T18:15:01;142.98;;;50.80;;
60241;SDS011;46103;52.076;113.488;2022-12-29T18:18:12;123.72;;;44.03;;
60241;SDS011;46103;52.076;113.488;2022-12-29T18:21:18;126.78;;;46.30;;
60241;SDS011;46103;52.076;113.488;2022-12-29T18:24:23;140.65;;;46.40;;
60241;SDS011;46103;52.076;113.488;2022-12-29T18:27:28;100.20;;;36.78;;
60241;SDS011;46103;52.076;113.488;2022-12-29T18:30:31;117.55;;;43.05;;
60241;SDS011;46103;52.076;113.488;2022-12-29T18:33:35;145.93;;;52.17;;
60241;SDS011;46103;52.076;113.488;2022-12-29T18:36:38;213.52;;;63.60;;
60241;SDS011;46103;52.076;113.488;2022-12-29T18:39:42;248.25;;;86.35;;
60241;SDS011;46103;52.076;113.488;2022-12-29T18:42:46;158.93;;;64.65;;
60241;SDS011;46103;52.076;113.488;2022-12-29T18:45:50;163.95;;;53.40;;
60241;SDS011;46103;52.076;113.488;2022-12-29T18:48:53;170.27;;;61.95;;
60241;SDS011;46103;52.076;113.488;2022-12-29T18:51:58;258.83;;;79.13;;
60241;SDS011;46103;52.076;113.488;2022-12-29T18:55:01;299.08;;;97.03;;
60241;SDS011;46103;52.076;113.488;2022-12-29T18:58:07;332.65;;;115.97;;
60241;SDS011;46103;52.076;113.488;2022-12-29T19:01:29;390.02;;;140.50;;
60241;SDS011;46103;52.076;113.488;2022-12-29T19:04:33;368.33;;;124.50;;
60241;SDS011;46103;52.076;113.488;2022-12-29T19:07:36;395.30;;;131.93;;
60241;SDS011;46103;52.076;113.488;2022-12-29T19:10:40;315.30;;;115.35;;
60241;SDS011;46103;52.076;113.488;2022-12-29T19:13:44;210.13;;;69.40;;
60241;SDS011;46103;52.076;113.488;2022-12-29T19:16:48;356.40;;;113.03;;
60241;SDS011;46103;52.076;113.488;2022-12-29T19:19:51;375.35;;;131.45;;
60241;SDS011;46103;52.076;113.488;2022-12-29T19:22:55;287.17;;;101.30;;
60241;SDS011;46103;52.076;113.488;2022-12-29T19:25:59;239.18;;;87.63;;
60241;SDS011;46103;52.076;113.488;2022-12-29T19:29:03;243.65;;;77.57;;
60241;SDS011;46103;52.076;113.488;2022-12-29T19:32:08;310.65;;;98.38;;
60241;SDS011;46103;52.076;113.488;2022-12-29T19:35:12;96.95;;;32.00;;
60241;SDS011;46103;52.076;113.488;2022-12-29T19:38:16;81.75;;;31.33;;
60241;SDS011;46103;52.076;113.488;2022-12-29T19:41:20;140.68;;;43.40;;
60241;SDS011;46103;52.076;113.488;2022-12-29T19:44:23;146.93;;;53.00;;
60241;SDS011;46103;52.076;113.488;2022-12-29T19:47:45;274.63;;;76.07;;
60241;SDS011;46103;52.076;113.488;2022-12-29T19:50:49;167.13;;;52.55;;
60241;SDS011;46103;52.076;113.488;2022-12-29T19:53:53;138.23;;;50.45;;
60241;SDS011;46103;52.076;113.488;2022-12-29T19:56:56;128.77;;;37.83;;
60241;SDS011;46103;52.076;113.488;2022-12-29T20:00:00;112.00;;;41.58;;
60241;SDS011;46103;52.076;113.488;2022-12-29T20:03:12;81.32;;;30.85;;
60241;SDS011;46103;52.076;113.488;2022-12-29T20:06:34;172.68;;;60.22;;
60241;SDS011;46103;52.076;113.488;2022-12-29T20:09:37;201.43;;;61.85;;
60241;SDS011;46103;52.076;113.488;2022-12-29T20:12:40;359.15;;;116.53;;
60241;SDS011;46103;52.076;113.488;2022-12-29T20:15:43;403.48;;;124.38;;
60241;SDS011;46103;52.076;113.488;2022-12-29T20:18:47;410.98;;;140.65;;
60241;SDS011;46103;52.076;113.488;2022-12-29T20:21:51;402.08;;;135.82;;
60241;SDS011;46103;52.076;113.488;2022-12-29T20:24:54;482.27;;;167.55;;
60241;SDS011;46103;52.076;113.488;2022-12-29T20:28:17;468.23;;;149.85;;
60241;SDS011;46103;52.076;113.488;2022-12-29T20:31:32;332.05;;;113.20;;
60241;SDS011;46103;52.076;113.488;2022-12-29T20:34:40;284.17;;;92.55;;
60241;SDS011;46103;52.076;113.488;2022-12-29T20:37:45;409.63;;;139.68;;